Date,TemperatureHighF,TemperatureAvgF,TemperatureLowF,DewpointHighF,DewpointAvgF,DewpointLowF,HumidityHigh,HumidityAvg,HumidityLow,PressureMaxIn,PressureMinIn,WindSpeedMaxMPH,WindSpeedAvgMPH,GustSpeedMaxMPH,PrecipitationSumIn
2013-3-1,51.4,40.3,32.5,33.3,28.9,25.3,81,65,50,29.75,29.58,13,4,13,0.02
2013-3-2,47.1,37.5,31.3,28.3,24.1,20.0,66,59,49,29.76,29.66,11,4,11,0.00
2013-3-3,39.7,33.1,27.1,23.0,19.8,16.9,66,59,51,29.74,29.65,13,4,13,0.00
2013-3-4,44.4,35.1,29.8,24.7,20.1,16.7,63,55,46,29.90,29.74,20,5,20,0.06
2013-3-5,48.0,34.5,29.5,27.4,22.6,19.8,69,62,46,29.97,29.88,11,2,11,0.00
2013-3-6,41.2,38.6,33.4,35.5,31.8,23.9,82,76,68,29.89,29.67,13,3,13,3.04
2013-3-7,48.4,40.2,34.9,32.3,29.6,26.5,81,67,54,30.03,29.85,11,4,11,0.00
2013-3-8,41.2,35.1,30.7,35.6,29.6,26.5,86,81,66,30.15,29.98,9,1,9,0.18
2013-3-9,62.2,44.1,31.3,33.8,26.3,19.4,70,53,34,30.25,30.13,7,2,7,0.02
2013-3-10,65.1,41.8,27.7,42.1,29.4,18.2,77,63,43,30.32,30.21,8,1,8,0.04
2013-3-11,66.0,48.0,34.0,49.7,39.3,27.7,84,74,49,30.25,30.00,10,2,10,0.00
2013-3-12,59.2,52.3,41.9,56.2,47.8,35.2,91,85,77,30.00,29.61,15,3,15,0.59
2013-3-13,55.2,40.4,35.8,35.2,27.9,-2.1,77,65,42,29.89,29.77,13,4,13,0.00
2013-3-14,44.4,36.5,30.0,23.0,18.8,14.6,67,50,38,29.95,29.84,17,5,17,0.00
2013-3-15,53.2,40.2,27.3,30.0,21.9,13.0,59,49,42,29.97,29.66,13,3,13,0.00
2013-3-16,45.0,37.9,33.4,31.6,28.4,24.8,85,70,55,29.86,29.70,6,1,6,0.31
2013-3-17,44.4,34.8,27.7,30.3,24.4,17.6,86,68,49,30.24,29.85,9,2,9,0.02
2013-3-18,45.0,34.5,27.0,33.6,24.8,17.1,88,69,53,30.32,29.85,13,1,13,0.39
2013-3-19,53.8,42.3,36.3,43.5,33.8,20.9,90,74,45,29.85,29.65,19,2,19,0.24
2013-3-20,53.4,40.6,31.5,27.6,21.4,18.2,60,48,36,29.87,29.72,18,3,18,0.00
2013-3-21,44.2,35.5,29.1,25.1,20.2,12.4,76,56,40,29.76,29.60,12,3,12,0.08
2013-3-22,46.6,35.6,27.5,25.0,19.6,-9.0,64,53,43,29.87,29.72,19,4,19,0.00
2013-3-23,54.0,40.0,30.4,28.0,21.9,18.7,63,50,37,29.90,29.80,20,4,20,0.00
2013-3-24,53.4,39.8,26.8,27.3,22.2,15.7,69,51,38,29.92,29.63,8,2,8,0.00
2013-3-25,38.3,36.1,32.7,33.6,29.8,24.3,88,78,59,29.64,29.41,7,0,7,0.61
2013-3-26,56.8,43.8,34.5,39.1,33.3,30.3,88,69,46,29.84,29.56,10,2,10,0.02
2013-3-27,57.0,44.2,33.1,34.3,30.5,26.3,80,61,40,29.96,29.84,16,4,16,0.00
2013-3-28,52.9,43.3,33.6,34.1,29.4,25.7,74,60,47,30.08,29.94,10,3,10,0.00
2013-3-29,58.8,47.0,34.0,34.1,29.8,24.0,71,53,40,30.12,30.02,12,3,12,0.00
2013-3-30,66.9,50.3,31.3,36.9,30.0,24.3,79,50,32,30.14,30.03,9,2,9,0.00
2013-3-31,60.4,45.9,33.6,45.2,34.9,25.0,87,68,43,30.08,29.64,11,2,11,0.22